Terminal Aerodrome Forecast
Issued by NWS

Home | Current Version | Previous Version | Text Only | Print | Product List | Glossary On
Versions: 1 2 3 4 5 6 7 8 9 10 11 12 13 14 15 16 17 18 19 20 21 22 23 24 25 26 27 28 29 30
000
FTUS41 KBUF 311500 AAA
TAFIAG
TAF AMD
KIAG 311503Z 3115/0112 21006KT P6SM -SN OVC035
     FM311800 24010KT P6SM BKN080
     FM010400 26010KT 5SM -SHSN BKN025
     FM010800 31008KT P6SM -SHSN OVC015=

USA.gov is the U.S. government's official web portal to all federal, state and local government web resources and services.